Time;durP1;ratioP1;P1;durP2;ratioP2;P2;SDS_P1;SDS_P2;PMS_P1;PMS_P2;Temp;Humidity;BMP_temperature;BMP_pressure;BME280_temperature;BME280_humidity;BME280_pressure;Samples;Min_cycle;Max_cycle;Signal;HPM_P1;HPM_P2
2023/08/13 00:00:16;;;;;;;1.50;1.40;;;;;;;21.61;62.10;101439.75;5031006;27;96778;-50
2023/08/13 00:02:44;;;;;;;1.70;1.60;;;;;;;21.60;62.02;101435.47;5031057;27;97314;-50
2023/08/13 00:05:10;;;;;;;1.30;1.20;;;;;;;21.56;62.04;101443.47;5032421;27;97515;-50
2023/08/13 00:07:36;;;;;;;1.60;1.50;;;;;;;21.53;62.01;101450.19;5033087;27;97659;-49
2023/08/13 00:10:05;;;;;;;1.80;1.70;;;;;;;21.50;62.14;101443.63;5030841;27;96726;-50
2023/08/13 00:12:30;;;;;;;1.23;1.10;;;;;;;21.47;62.01;101441.91;5033261;27;97288;-49
2023/08/13 00:14:56;;;;;;;1.37;1.27;;;;;;;21.42;62.05;101433.66;5033160;27;97572;-49
2023/08/13 00:17:22;;;;;;;1.63;1.30;;;;;;;21.39;62.11;101431.97;5032264;27;97159;-49
2023/08/13 00:19:47;;;;;;;1.50;1.40;;;;;;;21.35;62.11;101437.16;5031856;27;97026;-49
2023/08/13 00:22:12;;;;;;;3.20;1.87;;;;;;;21.30;62.12;101440.84;5033553;27;96533;-50
2023/08/13 00:24:38;;;;;;;2.30;1.40;;;;;;;21.28;62.18;101437.84;5034246;27;97237;-50
2023/08/13 00:27:03;;;;;;;1.53;1.43;;;;;;;21.25;62.34;101442.50;5032267;27;97333;-49
2023/08/13 00:29:28;;;;;;;3.00;1.50;;;;;;;21.25;62.37;101445.28;5033944;27;97041;-49
2023/08/13 00:31:55;;;;;;;1.43;1.33;;;;;;;21.25;62.30;101444.56;5034506;27;96902;-49
2023/08/13 00:34:21;;;;;;;1.90;1.27;;;;;;;21.22;62.27;101452.00;5032137;27;97095;-50
2023/08/13 00:36:46;;;;;;;7.60;1.93;;;;;;;21.21;62.39;101444.16;5032054;27;97225;-50
2023/08/13 00:39:11;;;;;;;1.77;1.50;;;;;;;21.20;62.35;101445.44;5031787;27;96877;-50
2023/08/13 00:41:37;;;;;;;1.43;1.33;;;;;;;21.17;62.42;101460.53;5033452;27;97542;-49
2023/08/13 00:44:02;;;;;;;1.60;1.50;;;;;;;21.16;62.34;101450.63;5030958;27;97828;-50
2023/08/13 00:46:28;;;;;;;1.33;1.17;;;;;;;21.13;62.39;101448.94;5034589;27;97624;-50
2023/08/13 00:48:58;;;;;;;2.70;1.50;;;;;;;21.10;62.34;101442.38;5032763;27;96713;-49
2023/08/13 00:51:23;;;;;;;1.27;1.17;;;;;;;21.08;62.46;101444.22;5031006;27;97300;-49
2023/08/13 00:53:49;;;;;;;2.20;1.27;;;;;;;21.05;62.42;101439.72;5032517;27;97595;-49
2023/08/13 00:56:15;;;;;;;1.33;1.23;;;;;;;21.04;62.45;101450.16;5032663;27;97511;-49
2023/08/13 00:58:42;;;;;;;1.37;1.27;;;;;;;21.04;62.51;101452.19;5024699;27;97326;-49
2023/08/13 01:01:08;;;;;;;1.40;1.30;;;;;;;21.00;62.52;101444.13;5032437;27;97041;-49
2023/08/13 01:03:34;;;;;;;1.70;1.60;;;;;;;20.97;62.45;101447.28;5032866;27;97414;-49
2023/08/13 01:06:27;;;;;;;1.60;1.50;;;;;;;20.93;62.68;101447.59;5030790;27;97333;-49
2023/08/13 01:09:13;;;;;;;1.90;1.63;;;;;;;20.88;62.75;101452.03;5033666;27;96658;-50
2023/08/13 01:12:07;;;;;;;1.33;1.27;;;;;;;20.86;62.84;101445.47;5031591;27;96868;-49
2023/08/13 01:14:40;;;;;;;2.10;1.40;;;;;;;20.82;62.65;101448.63;5032278;27;97503;-49
2023/08/13 01:17:06;;;;;;;1.50;1.40;;;;;;;20.78;62.51;101448.22;5033978;27;96996;-50
2023/08/13 01:19:32;;;;;;;1.37;1.27;;;;;;;20.77;62.63;101446.69;5033143;27;97158;-50
2023/08/13 01:21:57;;;;;;;1.53;1.43;;;;;;;20.75;62.71;101449.28;5033629;27;97022;-49
2023/08/13 01:24:23;;;;;;;1.20;1.10;;;;;;;20.74;62.73;101453.41;5032346;27;97779;-49
2023/08/13 01:27:13;;;;;;;1.60;1.27;;;;;;;20.74;62.94;101449.84;5034302;27;99795;-49
2023/08/13 01:30:03;;;;;;;1.47;1.33;;;;;;;20.68;62.99;101457.63;5034177;27;96822;-49
2023/08/13 01:32:34;;;;;;;1.33;1.23;;;;;;;20.65;62.63;101451.06;5033289;27;97341;-50
2023/08/13 01:35:00;;;;;;;1.20;1.20;;;;;;;20.63;62.58;101458.50;5030569;27;97393;-49
2023/08/13 01:37:27;;;;;;;3.57;1.63;;;;;;;20.61;62.67;101456.25;5032389;27;97572;-49
2023/08/13 01:39:52;;;;;;;1.30;1.20;;;;;;;20.58;62.62;101457.31;5035285;27;96644;-49
2023/08/13 01:42:18;;;;;;;1.73;1.60;;;;;;;20.55;62.77;101455.59;5033320;27;97176;-50
2023/08/13 01:44:43;;;;;;;2.37;1.60;;;;;;;20.53;62.67;101451.88;5037061;27;111430;-50
2023/08/13 01:47:08;;;;;;;3.17;1.80;;;;;;;20.50;62.69;101459.28;5027509;27;103755;-51
2023/08/13 01:49:34;;;;;;;1.50;1.40;;;;;;;20.49;62.77;101457.03;5030153;27;96915;-49
2023/08/13 01:51:59;;;;;;;3.00;1.63;;;;;;;20.46;62.88;101452.53;5032669;27;97249;-51
2023/08/13 01:54:24;;;;;;;1.87;1.77;;;;;;;20.45;62.93;101462.97;5030662;27;96909;-49
2023/08/13 01:56:50;;;;;;;1.70;1.60;;;;;;;20.43;62.83;101453.59;5037341;27;96751;-49
2023/08/13 01:59:16;;;;;;;4.07;1.23;;;;;;;20.41;62.73;101462.53;5036136;27;97147;-49
2023/08/13 02:01:41;;;;;;;2.50;1.70;;;;;;;20.39;62.83;101453.19;5033808;27;97633;-51
2023/08/13 02:04:07;;;;;;;2.97;1.60;;;;;;;20.33;62.80;101458.91;5035409;27;97349;-50
2023/08/13 02:06:35;;;;;;;1.57;1.47;;;;;;;20.35;62.92;101467.50;5037968;27;97053;-50
2023/08/13 02:09:00;;;;;;;1.40;1.27;;;;;;;20.30;62.92;101454.41;5037212;27;97144;-50
2023/08/13 02:11:25;;;;;;;1.27;1.20;;;;;;;20.28;62.80;101467.41;5034782;27;96620;-50
2023/08/13 02:13:51;;;;;;;1.63;1.53;;;;;;;20.24;62.85;101453.78;5032609;27;107148;-49
2023/08/13 02:16:16;;;;;;;1.73;1.30;;;;;;;20.19;63.14;101462.97;5033575;27;106615;-49
2023/08/13 02:18:41;;;;;;;1.40;1.30;;;;;;;20.19;62.90;101460.19;5033857;27;97063;-50
2023/08/13 02:21:06;;;;;;;2.20;1.30;;;;;;;20.16;62.99;101455.66;5037368;27;100076;-50
2023/08/13 02:23:32;;;;;;;1.57;1.23;;;;;;;20.16;63.10;101464.06;5033435;27;111764;-49
2023/08/13 02:25:57;;;;;;;1.67;1.50;;;;;;;20.15;63.14;101465.34;5035853;27;102103;-50
2023/08/13 02:28:22;;;;;;;1.57;1.37;;;;;;;20.14;62.89;101469.44;5032403;27;96684;-50
2023/08/13 02:30:51;;;;;;;2.50;1.40;;;;;;;20.14;63.03;101466.63;5034504;27;101307;-50
2023/08/13 02:33:16;;;;;;;1.90;1.40;;;;;;;20.12;62.93;101461.59;5035349;27;96742;-50
2023/08/13 02:35:41;;;;;;;1.53;1.43;;;;;;;20.10;63.15;101461.38;5037477;27;97235;-50
2023/08/13 02:38:07;;;;;;;2.70;1.60;;;;;;;20.07;63.04;101468.03;5035148;27;97500;-49
2023/08/13 02:40:33;;;;;;;1.03;1.03;;;;;;;20.05;62.87;101469.91;5038098;27;97156;-49
2023/08/13 02:42:58;;;;;;;1.73;1.63;;;;;;;20.02;63.17;101468.16;5035376;27;97049;-50
2023/08/13 02:45:23;;;;;;;2.50;1.60;;;;;;;19.99;63.08;101472.78;5035586;27;97187;-50
2023/08/13 02:47:49;;;;;;;1.13;1.03;;;;;;;19.99;62.96;101480.41;5036030;27;100543;-49
2023/08/13 02:50:14;;;;;;;1.63;1.53;;;;;;;19.98;63.06;101478.91;5037147;27;97178;-50
2023/08/13 02:52:40;;;;;;;1.80;1.33;;;;;;;19.97;63.21;101477.41;5032858;27;97624;-49
2023/08/13 02:55:05;;;;;;;2.60;1.40;;;;;;;19.98;63.27;101473.34;5031417;27;97035;-49
2023/08/13 02:57:31;;;;;;;1.73;1.40;;;;;;;19.98;63.18;101473.34;5035674;27;96665;-49
2023/08/13 02:59:56;;;;;;;1.63;1.53;;;;;;;19.98;63.36;101473.34;5035459;27;100474;-50
2023/08/13 03:02:21;;;;;;;1.70;1.60;;;;;;;19.99;63.31;101472.78;5033829;27;96995;-50
2023/08/13 03:04:47;;;;;;;1.40;1.30;;;;;;;20.00;63.28;101467.97;5034165;27;97385;-49
2023/08/13 03:07:12;;;;;;;1.70;1.50;;;;;;;20.00;63.14;101476.34;5030276;27;97217;-51
2023/08/13 03:09:37;;;;;;;2.07;1.50;;;;;;;20.01;63.46;101478.59;5034444;27;96924;-50
2023/08/13 03:12:03;;;;;;;1.70;1.60;;;;;;;20.01;63.42;101480.63;5033840;27;97399;-51
2023/08/13 03:14:28;;;;;;;1.80;1.60;;;;;;;20.00;63.48;101481.94;5034632;27;97314;-50
2023/08/13 03:16:54;;;;;;;1.50;1.40;;;;;;;20.00;63.46;101487.50;5033716;27;101259;-49
2023/08/13 03:19:19;;;;;;;4.30;2.07;;;;;;;19.99;63.40;101477.63;5034203;27;97020;-51
2023/08/13 03:21:45;;;;;;;1.70;1.60;;;;;;;19.99;63.41;101470.00;5032537;27;105406;-49
2023/08/13 03:24:10;;;;;;;1.43;1.33;;;;;;;19.99;63.67;101480.41;5034426;27;97432;-49
2023/08/13 03:26:35;;;;;;;1.80;1.70;;;;;;;20.00;63.57;101481.94;5033934;27;97127;-50
2023/08/13 03:29:01;;;;;;;2.93;1.60;;;;;;;19.99;63.72;101480.41;5034007;27;97573;-49
2023/08/13 03:31:26;;;;;;;2.10;1.53;;;;;;;20.00;63.85;101481.94;5031240;27;97949;-50
2023/08/13 03:33:51;;;;;;;1.50;1.40;;;;;;;19.99;63.68;101483.97;5033838;27;96591;-48
2023/08/13 03:36:17;;;;;;;3.03;1.67;;;;;;;20.01;63.79;101489.00;5033066;27;97036;-51
2023/08/13 03:38:42;;;;;;;2.07;1.83;;;;;;;20.01;63.59;101489.75;5032528;27;96883;-50
2023/08/13 03:41:08;;;;;;;1.83;1.47;;;;;;;19.98;63.71;101485.25;5036010;27;97090;-49
2023/08/13 03:43:33;;;;;;;1.60;1.50;;;;;;;19.99;63.75;101483.19;5034958;27;97114;-47
2023/08/13 03:45:59;;;;;;;1.80;1.70;;;;;;;19.98;63.87;101484.50;5033745;27;99046;-49
2023/08/13 03:48:24;;;;;;;1.53;1.43;;;;;;;19.98;63.94;101490.09;5033564;27;96893;-49
2023/08/13 03:50:49;;;;;;;1.93;1.83;;;;;;;19.98;64.10;101485.25;5028822;27;101795;-48
2023/08/13 03:53:14;;;;;;;1.47;1.37;;;;;;;19.98;63.92;101488.06;5031481;27;111266;-49
2023/08/13 03:55:40;;;;;;;1.60;1.50;;;;;;;19.96;63.80;101487.81;5029693;27;97205;-49
2023/08/13 03:58:05;;;;;;;1.60;1.50;;;;;;;19.97;63.98;101485.78;5037101;27;97349;-50
2023/08/13 04:00:31;;;;;;;1.70;1.60;;;;;;;19.95;63.93;101488.38;5032954;27;97011;-50
2023/08/13 04:02:56;;;;;;;1.70;1.60;;;;;;;19.96;63.83;101495.47;5032462;27;96643;-49
2023/08/13 04:05:21;;;;;;;1.90;1.80;;;;;;;19.94;63.86;101493.19;5034704;27;97472;-50
2023/08/13 04:07:47;;;;;;;1.70;1.60;;;;;;;19.93;63.76;101500.09;5033194;27;97385;-50
2023/08/13 04:10:12;;;;;;;1.80;1.70;;;;;;;19.92;63.80;101501.38;5033304;27;96728;-49
2023/08/13 04:12:37;;;;;;;1.70;1.60;;;;;;;19.90;63.84;101492.78;5032602;27;97182;-50
2023/08/13 04:15:03;;;;;;;1.73;1.63;;;;;;;19.89;63.98;101499.66;5030511;27;96744;-51
2023/08/13 04:17:28;;;;;;;7.03;1.70;;;;;;;19.90;63.94;101494.81;5037412;27;97242;-49
2023/08/13 04:19:54;;;;;;;1.90;1.80;;;;;;;19.84;63.81;101494.94;5031031;27;99661;-52
2023/08/13 04:22:19;;;;;;;2.80;2.03;;;;;;;19.86;63.86;101488.78;5034235;27;97871;-51
2023/08/13 04:24:51;;;;;;;1.80;1.53;;;;;;;19.82;63.78;101491.91;5031621;27;97153;-49
2023/08/13 04:27:19;;;;;;;1.77;1.67;;;;;;;19.82;63.99;101496.75;5033828;27;97017;-50
2023/08/13 04:29:45;;;;;;;1.80;1.70;;;;;;;19.80;63.99;101497.28;5031933;27;96643;-50
2023/08/13 04:32:10;;;;;;;1.80;1.70;;;;;;;19.80;63.96;101500.09;5032009;27;98081;-50
2023/08/13 04:34:36;;;;;;;2.33;1.77;;;;;;;19.80;64.03;101496.53;5032386;27;97038;-50
2023/08/13 04:37:01;;;;;;;2.30;1.93;;;;;;;19.81;63.92;101492.47;5031203;27;101079;-49
2023/08/13 04:39:26;;;;;;;2.37;1.83;;;;;;;19.81;64.06;101490.41;5032698;27;99047;-50
2023/08/13 04:41:57;;;;;;;1.50;1.40;;;;;;;19.80;63.92;101493.75;5032890;27;98824;-49
2023/08/13 04:44:22;;;;;;;3.20;1.77;;;;;;;19.80;64.02;101491.72;5031781;27;97254;-50
2023/08/13 04:46:48;;;;;;;3.70;1.80;;;;;;;19.80;64.01;101502.13;5032137;27;97143;-50
2023/08/13 04:49:13;;;;;;;1.70;1.57;;;;;;;19.79;63.78;101506.22;5030099;27;100337;-50
2023/08/13 04:51:38;;;;;;;1.83;1.70;;;;;;;19.79;63.99;101500.63;5032970;27;97102;-50
2023/08/13 04:54:04;;;;;;;2.40;2.20;;;;;;;19.77;64.11;101492.78;5032253;27;101073;-50
2023/08/13 04:56:29;;;;;;;1.77;1.67;;;;;;;19.78;64.00;101499.88;5034060;27;97074;-50
2023/08/13 04:58:55;;;;;;;2.43;1.63;;;;;;;19.79;63.75;101495.03;5032274;27;97487;-49
2023/08/13 05:01:20;;;;;;;2.00;1.90;;;;;;;19.79;63.94;101500.63;5034435;27;97303;-50
2023/08/13 05:03:45;;;;;;;2.00;1.80;;;;;;;19.79;63.90;101506.22;5033617;27;97297;-50
2023/08/13 05:06:11;;;;;;;1.83;1.67;;;;;;;19.79;63.83;101503.41;5032515;27;97264;-49
2023/08/13 05:08:36;;;;;;;1.90;1.80;;;;;;;19.79;63.93;101500.63;5033395;27;110337;-50
2023/08/13 05:11:02;;;;;;;2.60;2.00;;;;;;;19.78;63.90;101499.09;5029722;27;97085;-50
2023/08/13 05:13:27;;;;;;;2.33;1.70;;;;;;;19.78;63.97;101499.88;5031201;27;97073;-50
2023/08/13 05:15:52;;;;;;;1.70;1.60;;;;;;;19.76;64.01;101502.44;5032811;27;97268;-50
2023/08/13 05:18:18;;;;;;;1.90;1.80;;;;;;;19.76;64.08;101501.69;5030456;27;97241;-49
2023/08/13 05:20:43;;;;;;;1.77;1.67;;;;;;;19.76;64.07;101501.69;5029250;27;104838;-49
2023/08/13 05:23:08;;;;;;;2.10;1.90;;;;;;;19.75;64.16;101500.16;5031852;27;97093;-50
2023/08/13 05:25:38;;;;;;;2.00;1.83;;;;;;;19.75;63.87;101502.97;5033623;27;97331;-49
2023/08/13 05:28:09;;;;;;;1.73;1.63;;;;;;;19.76;64.19;101501.69;5032677;27;97424;-50
2023/08/13 05:30:37;;;;;;;1.67;1.57;;;;;;;19.79;64.02;101500.63;5035513;27;97122;-49
2023/08/13 05:33:02;;;;;;;1.63;1.53;;;;;;;19.79;63.93;101503.41;5035062;27;97053;-49
2023/08/13 05:35:28;;;;;;;1.20;1.10;;;;;;;19.79;64.16;101504.16;5039938;27;97507;-49
2023/08/13 05:37:54;;;;;;;1.80;1.70;;;;;;;19.81;64.12;101504.38;5036453;27;97201;-49
2023/08/13 05:40:19;;;;;;;1.80;1.70;;;;;;;19.81;64.04;101504.38;5035121;27;98252;-50
2023/08/13 05:42:46;;;;;;;2.13;1.70;;;;;;;19.84;64.02;101505.34;5033464;27;96911;-49
2023/08/13 05:45:12;;;;;;;3.67;1.83;;;;;;;19.86;64.32;101511.13;5037718;27;97441;-50
2023/08/13 05:47:37;;;;;;;2.53;2.33;;;;;;;19.88;64.38;101503.72;5034763;27;96997;-49
2023/08/13 05:50:03;;;;;;;1.97;1.87;;;;;;;19.92;64.44;101506.94;5036709;27;97112;-49
2023/08/13 05:52:29;;;;;;;3.27;2.00;;;;;;;19.97;64.61;101505.34;5035611;27;96807;-50
2023/08/13 05:54:55;;;;;;;2.80;2.20;;;;;;;19.99;64.62;101505.56;5036112;27;97261;-49
2023/08/13 05:57:20;;;;;;;3.50;2.40;;;;;;;20.04;64.58;101510.28;5034604;27;96956;-50
2023/08/13 05:59:46;;;;;;;2.40;1.80;;;;;;;20.06;64.64;101504.91;5036002;27;97153;-50
2023/08/13 06:02:11;;;;;;;2.20;2.00;;;;;;;20.08;64.55;101505.13;5036048;27;96944;-49
2023/08/13 06:04:37;;;;;;;1.67;1.57;;;;;;;20.11;64.48;101502.03;5035045;27;96719;-50
2023/08/13 06:07:03;;;;;;;2.17;1.90;;;;;;;20.14;64.64;101497.38;5035685;27;102341;-49
2023/08/13 06:09:29;;;;;;;1.93;1.83;;;;;;;20.17;64.68;101501.91;5033778;27;97324;-49
2023/08/13 06:11:54;;;;;;;2.00;1.90;;;;;;;20.20;64.84;101506.41;5034697;27;96983;-50
2023/08/13 06:14:20;;;;;;;2.73;1.93;;;;;;;20.26;64.78;101509.13;5035750;27;96817;-50
2023/08/13 06:16:45;;;;;;;1.67;1.57;;;;;;;20.30;64.96;101510.28;5034139;27;104242;-50
2023/08/13 06:19:10;;;;;;;5.97;2.10;;;;;;;20.35;64.95;101508.69;5035220;27;97147;-50
2023/08/13 06:21:36;;;;;;;2.20;2.00;;;;;;;20.39;64.91;101518.25;5032629;27;97100;-50
2023/08/13 06:24:01;;;;;;;2.30;2.10;;;;;;;20.42;64.97;101519.22;5034518;27;96973;-49
2023/08/13 06:26:26;;;;;;;2.43;2.23;;;;;;;20.47;65.19;101519.06;5035761;27;97466;-49
2023/08/13 06:28:52;;;;;;;2.40;2.20;;;;;;;20.54;65.28;101521.22;5034185;27;97103;-49
2023/08/13 06:31:17;;;;;;;3.47;2.80;;;;;;;20.60;65.26;101516.25;5035840;27;96628;-49
2023/08/13 06:33:42;;;;;;;4.80;2.90;;;;;;;20.68;65.34;101525.50;5036231;27;97257;-49
2023/08/13 06:36:08;;;;;;;2.97;2.60;;;;;;;20.76;65.32;101531.16;5033775;27;109394;-50
2023/08/13 06:38:34;;;;;;;2.93;2.60;;;;;;;20.82;65.33;101526.94;5033644;27;97686;-50
2023/08/13 06:41:03;;;;;;;2.60;2.40;;;;;;;20.89;65.41;101526.28;5032745;27;97270;-50
2023/08/13 06:43:29;;;;;;;3.37;2.30;;;;;;;20.93;65.40;101528.72;5035017;27;97009;-50
2023/08/13 06:45:54;;;;;;;5.17;2.43;;;;;;;20.97;65.25;101531.94;5031620;27;97033;-51
2023/08/13 06:48:19;;;;;;;2.77;2.50;;;;;;;21.02;65.30;101527.50;5033588;27;97131;-50
2023/08/13 06:50:48;;;;;;;2.67;2.47;;;;;;;21.08;65.27;101531.00;5032536;27;102669;-49
2023/08/13 06:53:13;;;;;;;3.43;2.53;;;;;;;21.16;65.31;101529.75;5035751;27;96902;-50
2023/08/13 06:55:39;;;;;;;4.20;2.53;;;;;;;21.21;65.23;101531.66;5034364;27;97481;-49
2023/08/13 06:58:04;;;;;;;4.50;2.57;;;;;;;21.26;65.21;101521.63;5034592;27;102901;-50
2023/08/13 07:00:29;;;;;;;3.73;3.17;;;;;;;21.33;65.23;101529.34;5034124;27;97035;-50
2023/08/13 07:02:55;;;;;;;3.70;2.60;;;;;;;21.38;65.14;101531.25;5033376;27;97107;-49
2023/08/13 07:05:20;;;;;;;2.40;1.90;;;;;;;21.38;65.00;101526.38;5031390;27;108201;-51
2023/08/13 07:07:46;;;;;;;3.30;2.37;;;;;;;21.41;64.95;101525.31;5034601;27;97258;-50
2023/08/13 07:10:11;;;;;;;7.80;2.03;;;;;;;21.46;64.89;101520.88;5032823;27;97110;-49
2023/08/13 07:12:36;;;;;;;4.40;2.40;;;;;;;21.48;65.19;101516.22;5036252;27;96942;-50
2023/08/13 07:15:03;;;;;;;3.77;2.33;;;;;;;21.51;65.12;101528.38;5033278;27;97367;-49
2023/08/13 07:17:29;;;;;;;2.30;2.20;;;;;;;21.53;64.75;101557.34;5035837;27;97206;-50
2023/08/13 07:19:55;;;;;;;3.10;2.23;;;;;;;21.58;64.92;101536.84;5033095;27;96681;-50
2023/08/13 07:22:21;;;;;;;3.13;1.73;;;;;;;21.61;64.68;101541.34;5032038;27;99837;-50
2023/08/13 07:24:47;;;;;;;3.13;2.00;;;;;;;21.68;64.77;101539.91;5032512;27;96851;-51
2023/08/13 07:27:13;;;;;;;2.97;2.53;;;;;;;21.76;64.83;101543.50;5036099;27;96875;-50
2023/08/13 07:29:38;;;;;;;6.43;2.27;;;;;;;21.84;64.99;101541.53;5038223;27;97295;-50
2023/08/13 07:32:04;;;;;;;2.10;1.90;;;;;;;21.90;64.55;101550.56;5035304;27;99845;-50
2023/08/13 07:34:30;;;;;;;3.40;2.20;;;;;;;21.96;64.53;101550.41;5025944;27;97576;-50
2023/08/13 07:36:55;;;;;;;4.13;2.30;;;;;;;21.99;64.31;101546.50;5030506;27;96794;-50
2023/08/13 07:39:22;;;;;;;3.50;1.90;;;;;;;22.01;64.21;101544.66;5031235;27;97238;-50
2023/08/13 07:41:49;;;;;;;3.07;1.80;;;;;;;22.06;63.99;101549.34;5031235;27;97353;-50
2023/08/13 07:44:14;;;;;;;2.50;1.80;;;;;;;22.10;63.89;101549.75;5032601;27;97135;-50
2023/08/13 07:46:39;;;;;;;3.90;1.77;;;;;;;22.15;64.00;101548.84;5030526;27;97730;-50
2023/08/13 07:49:05;;;;;;;887.67;234.50;;;;;;;22.43;64.33;101559.28;5022201;27;97276;-50
2023/08/13 07:51:30;;;;;;;3.20;1.93;;;;;;;22.36;64.09;101552.34;5032373;27;96680;-50
2023/08/13 07:53:55;;;;;;;3.83;2.10;;;;;;;22.39;64.02;101554.00;5034605;27;98002;-50
2023/08/13 07:56:21;;;;;;;2.10;1.80;;;;;;;22.43;63.82;101552.91;5031413;27;97171;-50
2023/08/13 07:58:46;;;;;;;6.60;1.60;;;;;;;22.44;63.37;101552.34;5035886;27;97088;-50
2023/08/13 08:01:13;;;;;;;2.47;1.60;;;;;;;22.46;63.00;101555.34;5031423;27;97328;-50
2023/08/13 08:03:38;;;;;;;5.70;1.90;;;;;;;22.49;63.02;101556.31;5030522;27;98832;-50
2023/08/13 08:06:04;;;;;;;2.80;1.60;;;;;;;22.53;62.71;101551.06;5029034;27;97281;-50
2023/08/13 08:08:30;;;;;;;3.97;1.50;;;;;;;22.58;62.55;101550.94;5030362;27;97196;-50
2023/08/13 08:10:55;;;;;;;2.57;1.70;;;;;;;22.65;62.30;101549.50;5026867;27;97380;-50
2023/08/13 08:13:21;;;;;;;1.90;1.33;;;;;;;22.75;62.42;101553.25;5031294;27;97428;-50
2023/08/13 08:15:46;;;;;;;6.57;2.47;;;;;;;22.84;62.29;101547.13;5031015;27;97559;-50
2023/08/13 08:18:11;;;;;;;5.00;1.30;;;;;;;22.94;62.07;101567.72;5034366;27;96928;-50
2023/08/13 08:20:37;;;;;;;4.00;1.77;;;;;;;23.00;61.94;101549.38;5027458;27;97102;-50
2023/08/13 08:23:02;;;;;;;2.10;1.33;;;;;;;23.10;61.77;101552.41;5032717;27;96655;-50
2023/08/13 08:25:28;;;;;;;2.33;1.90;;;;;;;23.18;61.64;101547.56;5020636;27;97951;-50
2023/08/13 08:27:53;;;;;;;4.80;1.70;;;;;;;23.30;61.45;101551.50;5027661;27;97227;-49
2023/08/13 08:30:19;;;;;;;5.03;1.83;;;;;;;23.39;61.20;101545.38;5031648;27;97026;-50
2023/08/13 08:32:44;;;;;;;1.90;1.27;;;;;;;23.49;61.03;101554.72;5030095;27;97033;-50
2023/08/13 08:35:09;;;;;;;4.57;1.10;;;;;;;23.55;60.73;101549.66;5031926;27;96917;-50
2023/08/13 08:37:35;;;;;;;2.83;1.40;;;;;;;23.61;60.49;101558.66;5027485;27;97575;-50
2023/08/13 08:40:03;;;;;;;5.50;1.20;;;;;;;23.68;59.98;101557.16;5034502;27;97434;-51
2023/08/13 08:42:29;;;;;;;3.63;1.23;;;;;;;23.72;60.07;101552.66;5033863;27;97332;-50
2023/08/13 08:44:58;;;;;;;4.40;1.53;;;;;;;23.78;59.58;101558.84;5032809;27;97491;-50
2023/08/13 08:47:24;;;;;;;16.97;1.47;;;;;;;23.74;59.44;101552.84;5034320;27;101664;-50
2023/08/13 08:49:51;;;;;;;2.97;1.50;;;;;;;23.77;59.34;101546.09;5031269;27;97309;-50
2023/08/13 08:52:17;;;;;;;4.07;2.00;;;;;;;23.99;57.31;101535.38;5030971;27;97357;-50
2023/08/13 08:54:43;;;;;;;3.73;1.73;;;;;;;23.98;58.38;101534.66;5031096;27;96923;-50
2023/08/13 08:57:08;;;;;;;2.73;1.10;;;;;;;24.01;58.43;101535.56;5029038;27;97826;-49
2023/08/13 08:59:35;;;;;;;3.53;1.20;;;;;;;24.05;58.59;101535.97;5028063;27;96920;-50
2023/08/13 09:02:01;;;;;;;2.80;1.13;;;;;;;24.07;58.15;101528.44;5031915;27;96972;-50
2023/08/13 09:04:26;;;;;;;1.50;1.23;;;;;;;24.16;58.14;101536.31;5030441;27;97748;-50
2023/08/13 09:06:56;;;;;;;2.90;1.43;;;;;;;24.19;57.48;101537.22;5037570;27;97132;-51
2023/08/13 09:09:22;;;;;;;5.13;1.23;;;;;;;24.23;57.90;101541.16;5034794;27;97053;-50
2023/08/13 09:11:48;;;;;;;1.53;1.20;;;;;;;24.28;57.40;101540.22;5034694;27;97683;-50
2023/08/13 09:14:14;;;;;;;1.60;1.00;;;;;;;24.35;57.53;101542.22;5035333;27;98019;-49
2023/08/13 09:16:54;;;;;;;2.63;1.07;;;;;;;24.44;55.45;101532.47;5032246;27;96733;-49
2023/08/13 09:19:22;;;;;;;2.07;0.80;;;;;;;24.55;57.03;101526.44;5033346;27;97124;-50
2023/08/13 09:22:10;;;;;;;2.57;1.00;;;;;;;24.71;56.62;101530.66;5035208;27;97762;-50
2023/08/13 09:24:41;;;;;;;2.50;1.10;;;;;;;24.79;56.23;101530.66;5035334;27;97198;-49
2023/08/13 09:27:08;;;;;;;0.97;0.90;;;;;;;24.84;56.61;101529.66;5034743;27;96872;-52
2023/08/13 09:29:35;;;;;;;2.47;1.20;;;;;;;24.86;56.02;101524.19;5030849;27;97616;-49
2023/08/13 09:32:01;;;;;;;3.50;1.30;;;;;;;24.92;56.04;101528.28;5036358;27;98902;-49
2023/08/13 09:34:30;;;;;;;2.60;1.10;;;;;;;24.97;55.53;101530.16;5030894;27;97322;-50
2023/08/13 09:36:56;;;;;;;3.27;1.10;;;;;;;25.05;55.65;101527.28;5036403;27;96797;-51
2023/08/13 09:39:23;;;;;;;3.10;0.93;;;;;;;25.15;55.10;101520.44;5033194;27;96790;-49
2023/08/13 09:41:51;;;;;;;1.83;1.10;;;;;;;25.23;54.85;101526.78;5034150;27;97424;-49
2023/08/13 09:44:19;;;;;;;1.87;1.00;;;;;;;25.31;54.93;101516.19;5034900;27;97635;-51
2023/08/13 09:46:51;;;;;;;3.37;1.40;;;;;;;25.43;54.37;101518.56;5035002;27;96872;-52
2023/08/13 09:49:17;;;;;;;1.17;1.07;;;;;;;25.54;54.68;101527.31;5032738;27;96857;-50
2023/08/13 09:51:46;;;;;;;3.97;1.20;;;;;;;25.59;54.24;101520.69;5034134;27;97035;-50
2023/08/13 09:54:17;;;;;;;1.20;0.80;;;;;;;25.69;54.55;101517.94;5033033;27;96759;-50
2023/08/13 09:56:48;;;;;;;2.77;1.30;;;;;;;25.78;53.81;101518.06;5035368;27;97232;-49
2023/08/13 09:59:14;;;;;;;4.50;1.37;;;;;;;25.89;54.02;101516.81;5036347;27;97324;-50
2023/08/13 10:01:41;;;;;;;1.70;1.37;;;;;;;25.93;53.74;101514.31;5034361;27;97511;-50
2023/08/13 10:04:07;;;;;;;3.23;1.47;;;;;;;26.01;53.71;101504.44;5033550;27;97096;-49
2023/08/13 10:06:33;;;;;;;2.37;1.00;;;;;;;26.09;53.84;101509.28;5033717;27;96686;-49
2023/08/13 10:08:59;;;;;;;2.07;1.10;;;;;;;26.10;53.38;101510.81;5037370;27;96972;-50
2023/08/13 10:11:24;;;;;;;2.47;1.10;;;;;;;26.11;52.84;101506.63;5035089;27;97211;-49
2023/08/13 10:13:50;;;;;;;2.23;1.20;;;;;;;26.07;53.01;101509.84;5035797;27;97259;-50
2023/08/13 10:16:16;;;;;;;1.10;1.00;;;;;;;26.03;53.10;101510.28;5032097;27;97114;-50
2023/08/13 10:18:46;;;;;;;1.93;1.13;;;;;;;26.04;52.74;101506.13;5032802;27;97188;-50
2023/08/13 10:21:13;;;;;;;4.60;1.30;;;;;;;26.12;52.83;101517.38;5032618;27;97676;-51
2023/08/13 10:23:39;;;;;;;0.90;0.70;;;;;;;26.17;52.92;101521.25;5032234;27;98664;-49
2023/08/13 10:26:05;;;;;;;5.27;0.87;;;;;;;26.23;52.75;101516.09;5036239;27;97118;-50
2023/08/13 10:28:31;;;;;;;0.93;0.77;;;;;;;26.30;52.62;101527.28;5036652;27;97055;-49
2023/08/13 10:31:29;;;;;;;1.00;0.83;;;;;;;26.26;50.94;101512.84;5033194;27;97158;-50
2023/08/13 10:34:07;;;;;;;0.80;0.50;;;;;;;26.29;50.57;101516.59;5032210;27;97196;-47
2023/08/13 10:36:44;;;;;;;0.73;0.57;;;;;;;26.34;50.94;101513.50;5035033;27;96796;-50
2023/08/13 10:39:32;;;;;;;1.03;0.60;;;;;;;26.33;50.11;101520.50;5034307;27;96689;-51
2023/08/13 10:41:57;;;;;;;1.40;0.77;;;;;;;26.36;51.68;101522.16;5034483;27;97916;-51
2023/08/13 10:44:28;;;;;;;1.00;0.60;;;;;;;26.45;50.77;101510.16;5031590;27;99019;-48
2023/08/13 10:46:53;;;;;;;2.13;0.83;;;;;;;26.54;51.43;101512.31;5033509;27;97240;-50
2023/08/13 10:49:20;;;;;;;1.53;0.93;;;;;;;26.64;51.38;101503.91;5032395;27;97058;-49
2023/08/13 10:51:48;;;;;;;1.97;0.83;;;;;;;26.69;50.94;101509.28;5032802;27;97056;-48
2023/08/13 10:54:13;;;;;;;1.43;0.83;;;;;;;26.80;50.81;101510.13;5034772;27;97831;-49
2023/08/13 10:56:42;;;;;;;0.80;0.60;;;;;;;26.80;50.71;101510.13;5033937;27;97210;-49
2023/08/13 10:59:08;;;;;;;1.20;0.80;;;;;;;26.86;50.60;101504.94;5035524;27;97175;-50
2023/08/13 11:01:33;;;;;;;1.27;1.17;;;;;;;26.97;50.85;101504.41;5031498;27;97417;-50
2023/08/13 11:04:03;;;;;;;1.27;0.83;;;;;;;27.03;49.62;101507.69;5035794;27;106331;-49
2023/08/13 11:06:28;;;;;;;1.53;1.10;;;;;;;27.07;49.88;101500.28;5033811;27;97304;-49
2023/08/13 11:08:54;;;;;;;4.87;0.60;;;;;;;27.13;49.78;101502.84;5033917;27;97465;-49
2023/08/13 11:11:20;;;;;;;1.20;0.63;;;;;;;27.18;49.53;101507.47;5033528;27;97176;-49
2023/08/13 11:13:47;;;;;;;2.03;0.80;;;;;;;27.22;49.21;101502.09;5031110;27;97136;-50
2023/08/13 11:16:13;;;;;;;2.40;1.10;;;;;;;27.30;48.91;101499.94;5040483;27;97355;-50
2023/08/13 11:18:38;;;;;;;2.50;0.70;;;;;;;27.36;48.93;101495.50;5034477;27;97381;-50
2023/08/13 11:21:05;;;;;;;1.20;0.80;;;;;;;27.44;48.79;101489.72;5033612;27;97336;-50